sensor_id;sensor_type;location;lat;lon;timestamp;P1;durP1;ratioP1;P2;durP2;ratioP2
51686;SDS011;37774;52.192;4.584;2023-05-10T00:01:56;43.75;;;17.80;;
51686;SDS011;37774;52.192;4.584;2023-05-10T00:04:41;33.97;;;16.15;;
51686;SDS011;37774;52.192;4.584;2023-05-10T00:07:27;34.28;;;14.15;;
51686;SDS011;37774;52.192;4.584;2023-05-10T00:10:12;26.20;;;15.45;;
51686;SDS011;37774;52.192;4.584;2023-05-10T00:12:58;30.35;;;15.48;;
51686;SDS011;37774;52.192;4.584;2023-05-10T00:15:45;28.92;;;15.52;;
51686;SDS011;37774;52.192;4.584;2023-05-10T00:18:30;32.75;;;15.13;;
51686;SDS011;37774;52.192;4.584;2023-05-10T00:21:16;34.42;;;16.30;;
51686;SDS011;37774;52.192;4.584;2023-05-10T00:24:01;31.17;;;16.08;;
51686;SDS011;37774;52.192;4.584;2023-05-10T00:26:47;34.78;;;16.60;;
51686;SDS011;37774;52.192;4.584;2023-05-10T00:29:32;34.38;;;17.60;;
51686;SDS011;37774;52.192;4.584;2023-05-10T00:32:19;36.10;;;17.27;;
51686;SDS011;37774;52.192;4.584;2023-05-10T00:35:04;34.53;;;17.23;;
51686;SDS011;37774;52.192;4.584;2023-05-10T00:37:50;40.28;;;16.90;;
51686;SDS011;37774;52.192;4.584;2023-05-10T00:40:36;38.72;;;18.45;;
51686;SDS011;37774;52.192;4.584;2023-05-10T00:43:21;39.08;;;16.95;;
51686;SDS011;37774;52.192;4.584;2023-05-10T00:46:07;40.17;;;18.90;;
51686;SDS011;37774;52.192;4.584;2023-05-10T00:48:53;38.15;;;17.52;;
51686;SDS011;37774;52.192;4.584;2023-05-10T00:51:39;48.90;;;17.05;;
51686;SDS011;37774;52.192;4.584;2023-05-10T00:57:11;42.20;;;18.17;;
51686;SDS011;37774;52.192;4.584;2023-05-10T00:59:56;48.80;;;19.10;;
51686;SDS011;37774;52.192;4.584;2023-05-10T01:02:42;46.05;;;18.90;;
51686;SDS011;37774;52.192;4.584;2023-05-10T01:05:29;65.45;;;20.25;;
51686;SDS011;37774;52.192;4.584;2023-05-10T01:08:15;48.50;;;20.15;;
51686;SDS011;37774;52.192;4.584;2023-05-10T01:11:01;51.10;;;20.42;;
51686;SDS011;37774;52.192;4.584;2023-05-10T01:13:47;49.45;;;19.85;;
51686;SDS011;37774;52.192;4.584;2023-05-10T01:16:40;52.28;;;20.73;;
51686;SDS011;37774;52.192;4.584;2023-05-10T01:19:28;42.88;;;17.60;;
51686;SDS011;37774;52.192;4.584;2023-05-10T01:22:29;56.22;;;18.58;;
51686;SDS011;37774;52.192;4.584;2023-05-10T01:25:41;39.10;;;16.85;;
51686;SDS011;37774;52.192;4.584;2023-05-10T01:28:55;88.40;;;21.20;;
51686;SDS011;37774;52.192;4.584;2023-05-10T01:32:00;55.30;;;21.13;;
51686;SDS011;37774;52.192;4.584;2023-05-10T01:34:58;43.08;;;18.90;;
51686;SDS011;37774;52.192;4.584;2023-05-10T01:37:52;48.58;;;19.58;;
51686;SDS011;37774;52.192;4.584;2023-05-10T01:40:47;58.10;;;23.07;;
51686;SDS011;37774;52.192;4.584;2023-05-10T01:43:41;52.25;;;21.40;;
51686;SDS011;37774;52.192;4.584;2023-05-10T01:46:34;57.30;;;22.90;;
51686;SDS011;37774;52.192;4.584;2023-05-10T01:49:25;91.95;;;27.52;;
51686;SDS011;37774;52.192;4.584;2023-05-10T01:52:15;75.32;;;27.17;;
51686;SDS011;37774;52.192;4.584;2023-05-10T01:55:05;81.97;;;27.45;;
51686;SDS011;37774;52.192;4.584;2023-05-10T01:58:07;78.43;;;28.25;;
51686;SDS011;37774;52.192;4.584;2023-05-10T02:00:54;70.32;;;27.50;;
51686;SDS011;37774;52.192;4.584;2023-05-10T02:03:42;68.82;;;27.27;;
51686;SDS011;37774;52.192;4.584;2023-05-10T02:06:30;93.03;;;27.08;;
51686;SDS011;37774;52.192;4.584;2023-05-10T02:09:18;77.30;;;28.20;;
51686;SDS011;37774;52.192;4.584;2023-05-10T02:12:05;76.40;;;28.13;;
51686;SDS011;37774;52.192;4.584;2023-05-10T02:17:38;72.40;;;25.63;;
51686;SDS011;37774;52.192;4.584;2023-05-10T02:20:26;72.40;;;25.73;;
51686;SDS011;37774;52.192;4.584;2023-05-10T02:26:17;71.82;;;25.95;;
51686;SDS011;37774;52.192;4.584;2023-05-10T02:29:05;92.47;;;28.33;;
51686;SDS011;37774;52.192;4.584;2023-05-10T02:34:39;92.60;;;27.20;;
51686;SDS011;37774;52.192;4.584;2023-05-10T02:37:25;88.70;;;30.20;;
51686;SDS011;37774;52.192;4.584;2023-05-10T02:40:13;75.80;;;26.95;;
51686;SDS011;37774;52.192;4.584;2023-05-10T02:43:02;104.22;;;30.02;;
51686;SDS011;37774;52.192;4.584;2023-05-10T02:45:48;78.47;;;28.30;;
51686;SDS011;37774;52.192;4.584;2023-05-10T02:48:34;92.53;;;30.50;;
51686;SDS011;37774;52.192;4.584;2023-05-10T02:51:19;79.70;;;28.95;;
51686;SDS011;37774;52.192;4.584;2023-05-10T02:54:10;94.45;;;29.58;;
51686;SDS011;37774;52.192;4.584;2023-05-10T02:57:03;75.22;;;26.98;;
51686;SDS011;37774;52.192;4.584;2023-05-10T02:59:50;71.07;;;27.65;;
51686;SDS011;37774;52.192;4.584;2023-05-10T03:02:36;76.30;;;27.85;;
51686;SDS011;37774;52.192;4.584;2023-05-10T03:05:21;75.80;;;27.42;;
51686;SDS011;37774;52.192;4.584;2023-05-10T03:08:06;77.53;;;24.73;;
51686;SDS011;37774;52.192;4.584;2023-05-10T03:10:55;62.95;;;24.90;;
51686;SDS011;37774;52.192;4.584;2023-05-10T03:13:56;73.63;;;24.67;;
51686;SDS011;37774;52.192;4.584;2023-05-10T03:16:56;83.43;;;28.42;;
51686;SDS011;37774;52.192;4.584;2023-05-10T03:19:47;58.38;;;24.70;;
51686;SDS011;37774;52.192;4.584;2023-05-10T03:22:39;73.45;;;27.15;;
51686;SDS011;37774;52.192;4.584;2023-05-10T03:25:29;76.00;;;27.90;;
51686;SDS011;37774;52.192;4.584;2023-05-10T03:31:04;71.78;;;28.15;;
51686;SDS011;37774;52.192;4.584;2023-05-10T03:33:51;85.22;;;29.88;;
51686;SDS011;37774;52.192;4.584;2023-05-10T03:36:37;44.42;;;18.17;;
51686;SDS011;37774;52.192;4.584;2023-05-10T03:39:23;46.17;;;19.42;;
51686;SDS011;37774;52.192;4.584;2023-05-10T03:42:08;48.20;;;16.60;;
51686;SDS011;37774;52.192;4.584;2023-05-10T03:44:55;60.47;;;18.58;;
51686;SDS011;37774;52.192;4.584;2023-05-10T03:47:42;46.35;;;16.10;;
51686;SDS011;37774;52.192;4.584;2023-05-10T03:50:27;68.68;;;16.95;;
51686;SDS011;37774;52.192;4.584;2023-05-10T03:53:13;45.65;;;13.30;;
51686;SDS011;37774;52.192;4.584;2023-05-10T03:55:58;51.35;;;14.00;;
51686;SDS011;37774;52.192;4.584;2023-05-10T03:58:44;44.63;;;13.38;;
51686;SDS011;37774;52.192;4.584;2023-05-10T04:01:29;55.33;;;15.25;;
51686;SDS011;37774;52.192;4.584;2023-05-10T04:04:16;54.58;;;15.02;;
51686;SDS011;37774;52.192;4.584;2023-05-10T04:09:47;58.85;;;17.98;;
51686;SDS011;37774;52.192;4.584;2023-05-10T04:12:33;62.55;;;18.30;;
51686;SDS011;37774;52.192;4.584;2023-05-10T04:15:18;57.20;;;18.60;;
51686;SDS011;37774;52.192;4.584;2023-05-10T04:18:04;45.03;;;17.17;;
51686;SDS011;37774;52.192;4.584;2023-05-10T04:20:50;54.58;;;16.98;;
51686;SDS011;37774;52.192;4.584;2023-05-10T04:23:36;51.17;;;19.33;;
51686;SDS011;37774;52.192;4.584;2023-05-10T04:26:21;37.08;;;13.13;;
51686;SDS011;37774;52.192;4.584;2023-05-10T04:29:08;46.38;;;12.10;;
51686;SDS011;37774;52.192;4.584;2023-05-10T04:31:54;35.22;;;10.48;;
51686;SDS011;37774;52.192;4.584;2023-05-10T04:34:40;33.17;;;11.43;;
51686;SDS011;37774;52.192;4.584;2023-05-10T04:37:27;33.30;;;11.45;;
51686;SDS011;37774;52.192;4.584;2023-05-10T04:40:12;39.42;;;12.32;;
51686;SDS011;37774;52.192;4.584;2023-05-10T04:42:57;38.40;;;10.95;;
51686;SDS011;37774;52.192;4.584;2023-05-10T04:45:43;32.80;;;10.25;;
51686;SDS011;37774;52.192;4.584;2023-05-10T04:48:28;27.80;;;11.20;;
51686;SDS011;37774;52.192;4.584;2023-05-10T04:51:14;22.23;;;10.05;;
51686;SDS011;37774;52.192;4.584;2023-05-10T04:54:01;27.63;;;9.40;;
51686;SDS011;37774;52.192;4.584;2023-05-10T04:56:46;28.02;;;9.50;;
51686;SDS011;37774;52.192;4.584;2023-05-10T04:59:31;25.77;;;10.38;;
51686;SDS011;37774;52.192;4.584;2023-05-10T05:02:17;33.90;;;11.00;;
51686;SDS011;37774;52.192;4.584;2023-05-10T05:05:02;34.63;;;11.07;;
51686;SDS011;37774;52.192;4.584;2023-05-10T05:07:48;32.90;;;10.52;;
51686;SDS011;37774;52.192;4.584;2023-05-10T05:10:35;32.28;;;11.32;;
51686;SDS011;37774;52.192;4.584;2023-05-10T05:13:20;35.13;;;11.07;;
51686;SDS011;37774;52.192;4.584;2023-05-10T05:16:06;35.50;;;11.25;;
51686;SDS011;37774;52.192;4.584;2023-05-10T05:18:51;31.35;;;10.77;;
51686;SDS011;37774;52.192;4.584;2023-05-10T05:21:37;28.08;;;11.23;;
51686;SDS011;37774;52.192;4.584;2023-05-10T05:24:22;34.90;;;12.00;;
51686;SDS011;37774;52.192;4.584;2023-05-10T05:27:09;32.05;;;10.82;;
51686;SDS011;37774;52.192;4.584;2023-05-10T05:29:54;24.20;;;9.65;;
51686;SDS011;37774;52.192;4.584;2023-05-10T05:32:40;26.98;;;9.77;;
51686;SDS011;37774;52.192;4.584;2023-05-10T05:35:25;31.15;;;9.27;;
51686;SDS011;37774;52.192;4.584;2023-05-10T05:38:11;24.48;;;9.70;;
51686;SDS011;37774;52.192;4.584;2023-05-10T05:40:56;27.33;;;8.90;;
51686;SDS011;37774;52.192;4.584;2023-05-10T05:43:43;21.88;;;7.47;;
51686;SDS011;37774;52.192;4.584;2023-05-10T05:46:28;26.73;;;9.48;;
51686;SDS011;37774;52.192;4.584;2023-05-10T05:49:14;25.45;;;8.73;;
51686;SDS011;37774;52.192;4.584;2023-05-10T05:51:59;20.23;;;8.73;;
51686;SDS011;37774;52.192;4.584;2023-05-10T05:54:45;22.73;;;9.25;;
51686;SDS011;37774;52.192;4.584;2023-05-10T05:57:31;17.30;;;7.22;;
51686;SDS011;37774;52.192;4.584;2023-05-10T06:00:17;23.33;;;7.68;;
51686;SDS011;37774;52.192;4.584;2023-05-10T06:03:03;21.48;;;9.20;;
51686;SDS011;37774;52.192;4.584;2023-05-10T06:05:48;18.10;;;7.93;;
51686;SDS011;37774;52.192;4.584;2023-05-10T06:08:33;17.25;;;7.32;;
51686;SDS011;37774;52.192;4.584;2023-05-10T06:11:19;14.93;;;6.50;;
51686;SDS011;37774;52.192;4.584;2023-05-10T06:14:05;13.85;;;5.80;;
51686;SDS011;37774;52.192;4.584;2023-05-10T06:16:53;15.07;;;6.53;;
51686;SDS011;37774;52.192;4.584;2023-05-10T06:19:38;13.38;;;6.07;;
51686;SDS011;37774;52.192;4.584;2023-05-10T06:22:24;17.88;;;6.13;;
51686;SDS011;37774;52.192;4.584;2023-05-10T06:25:10;12.75;;;5.78;;
51686;SDS011;37774;52.192;4.584;2023-05-10T06:27:55;11.05;;;4.68;;
51686;SDS011;37774;52.192;4.584;2023-05-10T06:30:41;12.90;;;5.47;;
51686;SDS011;37774;52.192;4.584;2023-05-10T06:33:28;9.65;;;4.00;;
51686;SDS011;37774;52.192;4.584;2023-05-10T06:36:14;10.98;;;4.63;;
51686;SDS011;37774;52.192;4.584;2023-05-10T06:38:59;7.72;;;3.88;;
51686;SDS011;37774;52.192;4.584;2023-05-10T06:41:45;8.35;;;3.63;;
51686;SDS011;37774;52.192;4.584;2023-05-10T06:44:30;7.28;;;3.15;;
51686;SDS011;37774;52.192;4.584;2023-05-10T06:47:16;5.47;;;3.08;;
51686;SDS011;37774;52.192;4.584;2023-05-10T06:50:03;9.65;;;3.25;;
51686;SDS011;37774;52.192;4.584;2023-05-10T06:55:34;5.68;;;2.70;;
51686;SDS011;37774;52.192;4.584;2023-05-10T06:58:19;5.10;;;2.63;;
51686;SDS011;37774;52.192;4.584;2023-05-10T07:01:05;7.50;;;3.50;;
51686;SDS011;37774;52.192;4.584;2023-05-10T07:03:50;9.15;;;3.50;;
51686;SDS011;37774;52.192;4.584;2023-05-10T07:06:37;8.55;;;3.55;;
51686;SDS011;37774;52.192;4.584;2023-05-10T07:09:22;6.50;;;3.60;;
51686;SDS011;37774;52.192;4.584;2023-05-10T07:12:08;5.72;;;2.92;;
51686;SDS011;37774;52.192;4.584;2023-05-10T07:14:55;5.88;;;3.50;;
51686;SDS011;37774;52.192;4.584;2023-05-10T07:17:40;7.07;;;3.60;;
51686;SDS011;37774;52.192;4.584;2023-05-10T07:20:26;5.63;;;2.97;;
51686;SDS011;37774;52.192;4.584;2023-05-10T07:23:13;7.28;;;3.67;;
51686;SDS011;37774;52.192;4.584;2023-05-10T07:25:58;10.77;;;4.57;;
51686;SDS011;37774;52.192;4.584;2023-05-10T07:28:43;9.77;;;4.55;;
51686;SDS011;37774;52.192;4.584;2023-05-10T07:31:29;10.40;;;3.78;;
51686;SDS011;37774;52.192;4.584;2023-05-10T07:34:22;13.55;;;4.53;;
51686;SDS011;37774;52.192;4.584;2023-05-10T07:37:10;12.45;;;5.00;;
51686;SDS011;37774;52.192;4.584;2023-05-10T07:39:57;12.70;;;4.55;;
51686;SDS011;37774;52.192;4.584;2023-05-10T07:42:48;7.07;;;4.10;;
51686;SDS011;37774;52.192;4.584;2023-05-10T07:45:34;8.10;;;4.45;;
51686;SDS011;37774;52.192;4.584;2023-05-10T07:48:19;11.63;;;4.47;;
51686;SDS011;37774;52.192;4.584;2023-05-10T07:51:05;8.73;;;4.53;;
51686;SDS011;37774;52.192;4.584;2023-05-10T07:53:52;10.18;;;4.78;;
51686;SDS011;37774;52.192;4.584;2023-05-10T07:56:39;12.40;;;5.25;;
51686;SDS011;37774;52.192;4.584;2023-05-10T07:59:29;9.52;;;4.40;;
51686;SDS011;37774;52.192;4.584;2023-05-10T08:02:14;13.57;;;4.55;;
51686;SDS011;37774;52.192;4.584;2023-05-10T08:04:59;12.38;;;4.15;;
51686;SDS011;37774;52.192;4.584;2023-05-10T08:07:45;7.75;;;3.60;;
51686;SDS011;37774;52.192;4.584;2023-05-10T08:10:30;13.18;;;4.10;;
51686;SDS011;37774;52.192;4.584;2023-05-10T08:13:17;10.30;;;3.88;;
51686;SDS011;37774;52.192;4.584;2023-05-10T08:16:03;13.15;;;4.55;;
51686;SDS011;37774;52.192;4.584;2023-05-10T08:18:48;7.15;;;3.60;;
51686;SDS011;37774;52.192;4.584;2023-05-10T08:21:34;11.07;;;4.13;;
51686;SDS011;37774;52.192;4.584;2023-05-10T08:24:21;6.97;;;3.17;;
51686;SDS011;37774;52.192;4.584;2023-05-10T08:27:07;6.90;;;3.88;;
51686;SDS011;37774;52.192;4.584;2023-05-10T08:29:54;7.70;;;3.90;;
51686;SDS011;37774;52.192;4.584;2023-05-10T08:32:39;14.43;;;4.50;;
51686;SDS011;37774;52.192;4.584;2023-05-10T08:35:24;7.78;;;3.63;;
51686;SDS011;37774;52.192;4.584;2023-05-10T08:38:10;6.57;;;3.72;;
51686;SDS011;37774;52.192;4.584;2023-05-10T08:40:56;9.20;;;4.88;;
51686;SDS011;37774;52.192;4.584;2023-05-10T08:43:47;18.92;;;4.70;;
51686;SDS011;37774;52.192;4.584;2023-05-10T08:46:36;10.18;;;4.55;;
51686;SDS011;37774;52.192;4.584;2023-05-10T08:49:23;9.50;;;3.92;;
51686;SDS011;37774;52.192;4.584;2023-05-10T08:52:12;9.85;;;4.35;;
51686;SDS011;37774;52.192;4.584;2023-05-10T08:55:00;14.18;;;4.85;;
51686;SDS011;37774;52.192;4.584;2023-05-10T08:57:46;9.90;;;4.10;;
51686;SDS011;37774;52.192;4.584;2023-05-10T09:00:32;14.80;;;4.13;;
51686;SDS011;37774;52.192;4.584;2023-05-10T09:03:20;14.43;;;4.77;;
51686;SDS011;37774;52.192;4.584;2023-05-10T09:06:05;7.88;;;4.18;;
51686;SDS011;37774;52.192;4.584;2023-05-10T09:08:51;16.67;;;3.90;;
51686;SDS011;37774;52.192;4.584;2023-05-10T09:11:37;13.70;;;3.63;;
51686;SDS011;37774;52.192;4.584;2023-05-10T09:14:23;10.23;;;3.45;;
51686;SDS011;37774;52.192;4.584;2023-05-10T09:17:09;17.10;;;4.20;;
51686;SDS011;37774;52.192;4.584;2023-05-10T09:20:05;9.55;;;3.58;;
51686;SDS011;37774;52.192;4.584;2023-05-10T09:22:50;13.52;;;3.97;;
51686;SDS011;37774;52.192;4.584;2023-05-10T09:25:36;10.43;;;4.25;;
51686;SDS011;37774;52.192;4.584;2023-05-10T09:28:22;14.30;;;3.40;;
51686;SDS011;37774;52.192;4.584;2023-05-10T09:31:07;8.45;;;3.38;;
51686;SDS011;37774;52.192;4.584;2023-05-10T09:33:55;9.75;;;3.65;;
51686;SDS011;37774;52.192;4.584;2023-05-10T09:36:51;12.85;;;3.95;;
51686;SDS011;37774;52.192;4.584;2023-05-10T09:39:38;8.77;;;3.67;;
51686;SDS011;37774;52.192;4.584;2023-05-10T09:42:24;10.18;;;4.22;;
51686;SDS011;37774;52.192;4.584;2023-05-10T09:45:10;9.93;;;4.03;;
51686;SDS011;37774;52.192;4.584;2023-05-10T09:47:56;9.45;;;3.88;;
51686;SDS011;37774;52.192;4.584;2023-05-10T09:50:42;9.02;;;4.25;;
51686;SDS011;37774;52.192;4.584;2023-05-10T09:53:29;13.18;;;5.25;;
51686;SDS011;37774;52.192;4.584;2023-05-10T09:56:15;11.10;;;4.68;;
51686;SDS011;37774;52.192;4.584;2023-05-10T09:59:18;7.10;;;3.65;;
51686;SDS011;37774;52.192;4.584;2023-05-10T10:02:04;5.97;;;3.08;;
51686;SDS011;37774;52.192;4.584;2023-05-10T10:04:49;6.72;;;3.13;;
51686;SDS011;37774;52.192;4.584;2023-05-10T10:07:36;6.32;;;3.25;;
51686;SDS011;37774;52.192;4.584;2023-05-10T10:10:23;6.70;;;3.53;;
51686;SDS011;37774;52.192;4.584;2023-05-10T10:13:08;12.32;;;4.30;;
51686;SDS011;37774;52.192;4.584;2023-05-10T10:15:54;8.52;;;4.30;;
51686;SDS011;37774;52.192;4.584;2023-05-10T10:18:39;9.07;;;4.13;;
51686;SDS011;37774;52.192;4.584;2023-05-10T10:21:26;9.27;;;3.63;;
51686;SDS011;37774;52.192;4.584;2023-05-10T10:24:12;9.32;;;4.95;;
51686;SDS011;37774;52.192;4.584;2023-05-10T10:26:59;10.82;;;4.93;;
51686;SDS011;37774;52.192;4.584;2023-05-10T10:29:58;11.02;;;5.55;;
51686;SDS011;37774;52.192;4.584;2023-05-10T10:32:54;10.98;;;5.13;;
51686;SDS011;37774;52.192;4.584;2023-05-10T10:36:00;11.23;;;5.82;;
51686;SDS011;37774;52.192;4.584;2023-05-10T10:39:00;16.95;;;6.45;;
51686;SDS011;37774;52.192;4.584;2023-05-10T10:41:54;18.02;;;6.50;;
51686;SDS011;37774;52.192;4.584;2023-05-10T10:44:41;24.35;;;6.93;;
51686;SDS011;37774;52.192;4.584;2023-05-10T10:47:28;16.77;;;6.45;;
51686;SDS011;37774;52.192;4.584;2023-05-10T10:50:16;22.25;;;8.30;;
51686;SDS011;37774;52.192;4.584;2023-05-10T10:53:09;23.75;;;7.57;;
51686;SDS011;37774;52.192;4.584;2023-05-10T10:56:06;21.92;;;8.10;;
51686;SDS011;37774;52.192;4.584;2023-05-10T10:58:53;22.83;;;8.82;;
51686;SDS011;37774;52.192;4.584;2023-05-10T11:01:47;29.08;;;10.00;;
51686;SDS011;37774;52.192;4.584;2023-05-10T11:04:43;24.70;;;9.35;;
51686;SDS011;37774;52.192;4.584;2023-05-10T11:07:32;36.80;;;9.55;;
51686;SDS011;37774;52.192;4.584;2023-05-10T11:10:19;26.17;;;8.77;;
51686;SDS011;37774;52.192;4.584;2023-05-10T11:13:05;29.23;;;9.20;;
51686;SDS011;37774;52.192;4.584;2023-05-10T11:15:51;28.73;;;9.13;;
51686;SDS011;37774;52.192;4.584;2023-05-10T11:18:38;22.67;;;8.57;;
51686;SDS011;37774;52.192;4.584;2023-05-10T11:21:24;21.90;;;7.10;;
51686;SDS011;37774;52.192;4.584;2023-05-10T11:24:13;25.88;;;7.63;;
51686;SDS011;37774;52.192;4.584;2023-05-10T11:27:00;26.25;;;8.20;;
51686;SDS011;37774;52.192;4.584;2023-05-10T11:29:46;23.52;;;7.25;;
51686;SDS011;37774;52.192;4.584;2023-05-10T11:32:36;16.88;;;6.93;;
51686;SDS011;37774;52.192;4.584;2023-05-10T11:35:23;19.43;;;6.23;;
51686;SDS011;37774;52.192;4.584;2023-05-10T11:38:12;14.70;;;5.20;;
51686;SDS011;37774;52.192;4.584;2023-05-10T11:40:58;21.63;;;5.53;;
51686;SDS011;37774;52.192;4.584;2023-05-10T11:43:44;14.48;;;4.97;;
51686;SDS011;37774;52.192;4.584;2023-05-10T11:46:32;16.58;;;4.68;;
51686;SDS011;37774;52.192;4.584;2023-05-10T11:49:18;13.63;;;5.30;;
51686;SDS011;37774;52.192;4.584;2023-05-10T11:52:05;10.05;;;3.88;;
51686;SDS011;37774;52.192;4.584;2023-05-10T11:55:00;9.77;;;3.42;;
51686;SDS011;37774;52.192;4.584;2023-05-10T11:57:46;13.00;;;3.25;;
51686;SDS011;37774;52.192;4.584;2023-05-10T12:00:32;11.45;;;4.15;;
51686;SDS011;37774;52.192;4.584;2023-05-10T12:03:18;7.30;;;3.30;;
51686;SDS011;37774;52.192;4.584;2023-05-10T12:06:06;11.00;;;4.43;;
51686;SDS011;37774;52.192;4.584;2023-05-10T12:08:54;11.07;;;4.22;;
51686;SDS011;37774;52.192;4.584;2023-05-10T12:11:40;14.30;;;5.10;;
51686;SDS011;37774;52.192;4.584;2023-05-10T12:14:25;16.95;;;5.47;;
51686;SDS011;37774;52.192;4.584;2023-05-10T12:17:11;14.25;;;5.25;;
51686;SDS011;37774;52.192;4.584;2023-05-10T12:19:58;10.02;;;5.18;;
51686;SDS011;37774;52.192;4.584;2023-05-10T12:22:44;13.35;;;5.32;;
51686;SDS011;37774;52.192;4.584;2023-05-10T12:25:33;12.13;;;4.82;;
51686;SDS011;37774;52.192;4.584;2023-05-10T12:28:20;14.63;;;5.07;;
51686;SDS011;37774;52.192;4.584;2023-05-10T12:31:05;13.70;;;5.50;;
51686;SDS011;37774;52.192;4.584;2023-05-10T12:33:51;12.80;;;5.15;;
51686;SDS011;37774;52.192;4.584;2023-05-10T12:36:38;12.13;;;4.10;;
51686;SDS011;37774;52.192;4.584;2023-05-10T12:39:23;7.40;;;3.60;;
51686;SDS011;37774;52.192;4.584;2023-05-10T12:42:10;8.07;;;3.45;;
51686;SDS011;37774;52.192;4.584;2023-05-10T12:44:56;9.15;;;3.35;;
51686;SDS011;37774;52.192;4.584;2023-05-10T12:47:41;11.75;;;4.15;;
51686;SDS011;37774;52.192;4.584;2023-05-10T12:50:27;6.57;;;3.90;;
51686;SDS011;37774;52.192;4.584;2023-05-10T12:53:12;8.40;;;3.65;;
51686;SDS011;37774;52.192;4.584;2023-05-10T12:55:59;10.25;;;4.30;;
51686;SDS011;37774;52.192;4.584;2023-05-10T12:58:45;9.18;;;3.25;;
51686;SDS011;37774;52.192;4.584;2023-05-10T13:01:31;6.50;;;3.63;;
51686;SDS011;37774;52.192;4.584;2023-05-10T13:04:17;8.35;;;3.90;;
51686;SDS011;37774;52.192;4.584;2023-05-10T13:07:02;10.20;;;4.65;;
51686;SDS011;37774;52.192;4.584;2023-05-10T13:09:48;9.07;;;4.10;;
51686;SDS011;37774;52.192;4.584;2023-05-10T13:12:33;8.32;;;4.25;;
51686;SDS011;37774;52.192;4.584;2023-05-10T13:15:20;13.30;;;4.97;;
51686;SDS011;37774;52.192;4.584;2023-05-10T13:18:05;11.25;;;5.10;;
51686;SDS011;37774;52.192;4.584;2023-05-10T13:20:51;11.27;;;5.22;;
51686;SDS011;37774;52.192;4.584;2023-05-10T13:23:38;12.30;;;5.57;;
51686;SDS011;37774;52.192;4.584;2023-05-10T13:26:24;15.48;;;5.88;;
51686;SDS011;37774;52.192;4.584;2023-05-10T13:29:09;11.15;;;4.75;;
51686;SDS011;37774;52.192;4.584;2023-05-10T13:31:56;13.35;;;5.78;;
51686;SDS011;37774;52.192;4.584;2023-05-10T13:34:41;11.10;;;5.28;;
51686;SDS011;37774;52.192;4.584;2023-05-10T13:37:27;15.05;;;5.68;;
51686;SDS011;37774;52.192;4.584;2023-05-10T13:40:13;20.52;;;6.43;;
51686;SDS011;37774;52.192;4.584;2023-05-10T13:42:59;18.20;;;6.63;;
51686;SDS011;37774;52.192;4.584;2023-05-10T13:45:44;11.23;;;5.93;;
51686;SDS011;37774;52.192;4.584;2023-05-10T13:48:31;15.43;;;6.53;;
51686;SDS011;37774;52.192;4.584;2023-05-10T13:51:16;16.48;;;7.32;;
51686;SDS011;37774;52.192;4.584;2023-05-10T13:54:02;14.68;;;6.53;;
51686;SDS011;37774;52.192;4.584;2023-05-10T13:56:47;15.73;;;6.70;;
51686;SDS011;37774;52.192;4.584;2023-05-10T13:59:33;16.15;;;6.20;;
51686;SDS011;37774;52.192;4.584;2023-05-10T14:02:18;11.10;;;5.45;;
51686;SDS011;37774;52.192;4.584;2023-05-10T14:05:06;18.17;;;6.20;;
51686;SDS011;37774;52.192;4.584;2023-05-10T14:07:52;18.35;;;7.30;;
51686;SDS011;37774;52.192;4.584;2023-05-10T14:10:37;20.33;;;6.70;;
51686;SDS011;37774;52.192;4.584;2023-05-10T14:13:23;17.25;;;6.75;;
51686;SDS011;37774;52.192;4.584;2023-05-10T14:16:09;14.20;;;6.40;;
51686;SDS011;37774;52.192;4.584;2023-05-10T14:18:55;11.57;;;6.13;;
51686;SDS011;37774;52.192;4.584;2023-05-10T14:21:42;16.67;;;6.32;;
51686;SDS011;37774;52.192;4.584;2023-05-10T14:24:27;17.45;;;7.00;;
51686;SDS011;37774;52.192;4.584;2023-05-10T14:27:12;18.77;;;5.97;;
51686;SDS011;37774;52.192;4.584;2023-05-10T14:29:58;16.80;;;6.93;;
51686;SDS011;37774;52.192;4.584;2023-05-10T14:32:44;12.70;;;6.22;;
51686;SDS011;37774;52.192;4.584;2023-05-10T14:35:29;17.92;;;6.53;;
51686;SDS011;37774;52.192;4.584;2023-05-10T14:38:17;11.13;;;5.80;;
51686;SDS011;37774;52.192;4.584;2023-05-10T14:41:02;17.88;;;5.78;;
51686;SDS011;37774;52.192;4.584;2023-05-10T14:43:48;9.98;;;5.53;;
51686;SDS011;37774;52.192;4.584;2023-05-10T14:46:33;13.75;;;5.35;;
51686;SDS011;37774;52.192;4.584;2023-05-10T14:49:19;14.90;;;6.05;;
51686;SDS011;37774;52.192;4.584;2023-05-10T14:52:06;14.32;;;5.95;;
51686;SDS011;37774;52.192;4.584;2023-05-10T14:54:53;16.27;;;6.93;;
51686;SDS011;37774;52.192;4.584;2023-05-10T14:57:38;15.23;;;7.07;;
51686;SDS011;37774;52.192;4.584;2023-05-10T15:00:24;21.00;;;7.25;;
51686;SDS011;37774;52.192;4.584;2023-05-10T15:03:09;20.15;;;7.78;;
51686;SDS011;37774;52.192;4.584;2023-05-10T15:05:55;18.85;;;7.75;;
51686;SDS011;37774;52.192;4.584;2023-05-10T15:08:41;19.48;;;8.10;;
51686;SDS011;37774;52.192;4.584;2023-05-10T15:11:28;17.30;;;7.25;;
51686;SDS011;37774;52.192;4.584;2023-05-10T15:14:14;19.58;;;8.25;;
51686;SDS011;37774;52.192;4.584;2023-05-10T15:16:59;21.67;;;7.88;;
51686;SDS011;37774;52.192;4.584;2023-05-10T15:19:45;24.00;;;7.53;;
51686;SDS011;37774;52.192;4.584;2023-05-10T15:22:30;18.80;;;8.13;;
51686;SDS011;37774;52.192;4.584;2023-05-10T15:25:16;29.40;;;8.48;;
51686;SDS011;37774;52.192;4.584;2023-05-10T15:28:03;24.00;;;8.45;;
51686;SDS011;37774;52.192;4.584;2023-05-10T15:30:49;21.17;;;7.97;;
51686;SDS011;37774;52.192;4.584;2023-05-10T15:33:35;17.77;;;7.68;;
51686;SDS011;37774;52.192;4.584;2023-05-10T15:36:22;19.88;;;7.38;;
51686;SDS011;37774;52.192;4.584;2023-05-10T15:39:07;22.42;;;9.10;;
51686;SDS011;37774;52.192;4.584;2023-05-10T15:41:53;25.45;;;7.97;;
51686;SDS011;37774;52.192;4.584;2023-05-10T15:44:40;19.98;;;8.07;;
51686;SDS011;37774;52.192;4.584;2023-05-10T15:47:29;22.23;;;8.10;;
51686;SDS011;37774;52.192;4.584;2023-05-10T15:50:15;23.08;;;7.45;;
51686;SDS011;37774;52.192;4.584;2023-05-10T15:53:00;16.85;;;7.38;;
51686;SDS011;37774;52.192;4.584;2023-05-10T15:55:46;20.70;;;7.40;;
51686;SDS011;37774;52.192;4.584;2023-05-10T15:58:31;19.48;;;6.85;;
51686;SDS011;37774;52.192;4.584;2023-05-10T16:01:18;22.90;;;7.75;;
51686;SDS011;37774;52.192;4.584;2023-05-10T16:04:03;20.83;;;7.90;;
51686;SDS011;37774;52.192;4.584;2023-05-10T16:06:49;24.27;;;9.15;;
51686;SDS011;37774;52.192;4.584;2023-05-10T16:09:34;36.28;;;9.23;;
51686;SDS011;37774;52.192;4.584;2023-05-10T16:12:20;25.23;;;9.05;;
51686;SDS011;37774;52.192;4.584;2023-05-10T16:15:06;26.98;;;8.65;;
51686;SDS011;37774;52.192;4.584;2023-05-10T16:17:53;21.90;;;8.38;;
51686;SDS011;37774;52.192;4.584;2023-05-10T16:20:39;25.65;;;9.60;;
51686;SDS011;37774;52.192;4.584;2023-05-10T16:23:24;26.90;;;7.88;;
51686;SDS011;37774;52.192;4.584;2023-05-10T16:26:10;24.63;;;7.72;;
51686;SDS011;37774;52.192;4.584;2023-05-10T16:28:56;23.13;;;7.47;;
51686;SDS011;37774;52.192;4.584;2023-05-10T16:31:41;21.40;;;7.35;;
51686;SDS011;37774;52.192;4.584;2023-05-10T16:34:28;30.52;;;8.45;;
51686;SDS011;37774;52.192;4.584;2023-05-10T16:37:15;19.33;;;8.10;;
51686;SDS011;37774;52.192;4.584;2023-05-10T16:40:00;30.52;;;8.05;;
51686;SDS011;37774;52.192;4.584;2023-05-10T16:42:46;29.67;;;8.98;;
51686;SDS011;37774;52.192;4.584;2023-05-10T16:45:32;25.88;;;8.25;;
51686;SDS011;37774;52.192;4.584;2023-05-10T16:48:17;18.35;;;7.70;;
51686;SDS011;37774;52.192;4.584;2023-05-10T16:51:04;19.13;;;7.82;;